sensor_id;sensor_type;location;lat;lon;timestamp;P1;durP1;ratioP1;P2;durP2;ratioP2
49946;SDS011;35839;48.662;13.300;2022-10-20T04:57:19;17.47;;;9.70;;
49946;SDS011;35839;48.662;13.300;2022-10-20T04:59:45;20.43;;;11.10;;
49946;SDS011;35839;48.662;13.300;2022-10-20T05:02:10;12.47;;;8.53;;
49946;SDS011;35839;48.662;13.300;2022-10-20T05:04:35;18.70;;;10.90;;
49946;SDS011;35839;48.662;13.300;2022-10-20T05:07:01;14.17;;;11.17;;
49946;SDS011;35839;48.662;13.300;2022-10-20T05:09:26;19.43;;;11.10;;
49946;SDS011;35839;48.662;13.300;2022-10-20T05:11:52;17.50;;;9.93;;
49946;SDS011;35839;48.662;13.300;2022-10-20T05:14:17;17.60;;;10.03;;
49946;SDS011;35839;48.662;13.300;2022-10-20T05:16:43;20.63;;;12.23;;
49946;SDS011;35839;48.662;13.300;2022-10-20T05:19:09;24.60;;;14.03;;
49946;SDS011;35839;48.662;13.300;2022-10-20T05:21:35;19.27;;;10.57;;
49946;SDS011;35839;48.662;13.300;2022-10-20T05:24:01;13.70;;;10.17;;
49946;SDS011;35839;48.662;13.300;2022-10-20T05:26:29;11.93;;;8.70;;
49946;SDS011;35839;48.662;13.300;2022-10-20T05:28:58;18.93;;;9.00;;
49946;SDS011;35839;48.662;13.300;2022-10-20T05:31:23;13.87;;;9.50;;
49946;SDS011;35839;48.662;13.300;2022-10-20T05:33:50;13.37;;;9.17;;
49946;SDS011;35839;48.662;13.300;2022-10-20T05:36:18;12.35;;;9.63;;
49946;SDS011;35839;48.662;13.300;2022-10-20T05:38:45;12.70;;;9.33;;
49946;SDS011;35839;48.662;13.300;2022-10-20T05:41:12;15.23;;;9.47;;
49946;SDS011;35839;48.662;13.300;2022-10-20T05:43:39;15.73;;;9.13;;
49946;SDS011;35839;48.662;13.300;2022-10-20T05:46:05;16.40;;;8.33;;
49946;SDS011;35839;48.662;13.300;2022-10-20T05:48:31;13.17;;;8.27;;
49946;SDS011;35839;48.662;13.300;2022-10-20T05:51:11;14.13;;;8.83;;
49946;SDS011;35839;48.662;13.300;2022-10-20T05:53:38;14.90;;;9.70;;
49946;SDS011;35839;48.662;13.300;2022-10-20T05:56:07;12.67;;;9.23;;
49946;SDS011;35839;48.662;13.300;2022-10-20T05:58:34;19.30;;;10.73;;
49946;SDS011;35839;48.662;13.300;2022-10-20T06:01:07;16.30;;;9.33;;
49946;SDS011;35839;48.662;13.300;2022-10-20T06:04:02;15.83;;;9.93;;
49946;SDS011;35839;48.662;13.300;2022-10-20T06:06:28;13.30;;;9.00;;
49946;SDS011;35839;48.662;13.300;2022-10-20T06:08:55;12.67;;;9.40;;
49946;SDS011;35839;48.662;13.300;2022-10-20T06:11:22;12.80;;;9.33;;
49946;SDS011;35839;48.662;13.300;2022-10-20T06:13:48;15.60;;;10.23;;
49946;SDS011;35839;48.662;13.300;2022-10-20T06:16:14;15.10;;;10.03;;
49946;SDS011;35839;48.662;13.300;2022-10-20T06:18:44;16.87;;;10.23;;
49946;SDS011;35839;48.662;13.300;2022-10-20T06:21:10;11.83;;;8.90;;
49946;SDS011;35839;48.662;13.300;2022-10-20T06:23:38;9.97;;;6.87;;
49946;SDS011;35839;48.662;13.300;2022-10-20T06:26:05;15.47;;;9.17;;
49946;SDS011;35839;48.662;13.300;2022-10-20T06:28:36;13.67;;;8.80;;
49946;SDS011;35839;48.662;13.300;2022-10-20T06:31:13;10.83;;;8.43;;
49946;SDS011;35839;48.662;13.300;2022-10-20T06:33:43;12.20;;;8.87;;
49946;SDS011;35839;48.662;13.300;2022-10-20T06:36:09;13.63;;;8.73;;
49946;SDS011;35839;48.662;13.300;2022-10-20T06:38:36;12.93;;;7.90;;
49946;SDS011;35839;48.662;13.300;2022-10-20T06:41:03;13.83;;;8.20;;
49946;SDS011;35839;48.662;13.300;2022-10-20T06:43:29;12.93;;;9.03;;
49946;SDS011;35839;48.662;13.300;2022-10-20T06:45:55;14.57;;;8.67;;
49946;SDS011;35839;48.662;13.300;2022-10-20T06:48:22;12.57;;;7.50;;
49946;SDS011;35839;48.662;13.300;2022-10-20T06:50:48;13.33;;;9.57;;
49946;SDS011;35839;48.662;13.300;2022-10-20T06:53:13;14.87;;;9.80;;
49946;SDS011;35839;48.662;13.300;2022-10-20T06:55:39;15.33;;;9.90;;
49946;SDS011;35839;48.662;13.300;2022-10-20T06:58:04;15.43;;;9.53;;
49946;SDS011;35839;48.662;13.300;2022-10-20T07:00:30;16.13;;;10.10;;
49946;SDS011;35839;48.662;13.300;2022-10-20T07:02:55;15.97;;;9.77;;
49946;SDS011;35839;48.662;13.300;2022-10-20T07:05:20;15.30;;;8.63;;
49946;SDS011;35839;48.662;13.300;2022-10-20T07:07:46;19.90;;;9.00;;
49946;SDS011;35839;48.662;13.300;2022-10-20T07:10:11;16.50;;;10.00;;
49946;SDS011;35839;48.662;13.300;2022-10-20T07:12:37;14.23;;;10.23;;
49946;SDS011;35839;48.662;13.300;2022-10-20T07:15:02;14.60;;;8.87;;
49946;SDS011;35839;48.662;13.300;2022-10-20T07:17:28;13.60;;;8.67;;
49946;SDS011;35839;48.662;13.300;2022-10-20T07:19:53;13.80;;;9.90;;
49946;SDS011;35839;48.662;13.300;2022-10-20T07:22:19;12.97;;;7.83;;
49946;SDS011;35839;48.662;13.300;2022-10-20T07:24:44;10.97;;;8.27;;
49946;SDS011;35839;48.662;13.300;2022-10-20T07:27:09;18.20;;;9.03;;
49946;SDS011;35839;48.662;13.300;2022-10-20T07:29:35;12.70;;;8.23;;
49946;SDS011;35839;48.662;13.300;2022-10-20T07:32:01;13.67;;;9.53;;
49946;SDS011;35839;48.662;13.300;2022-10-20T07:34:26;12.37;;;8.20;;
49946;SDS011;35839;48.662;13.300;2022-10-20T07:36:52;13.27;;;8.17;;
49946;SDS011;35839;48.662;13.300;2022-10-20T07:39:18;15.20;;;7.60;;
49946;SDS011;35839;48.662;13.300;2022-10-20T07:41:43;13.60;;;8.67;;
49946;SDS011;35839;48.662;13.300;2022-10-20T07:44:11;11.03;;;8.00;;
49946;SDS011;35839;48.662;13.300;2022-10-20T07:46:36;14.47;;;8.10;;
49946;SDS011;35839;48.662;13.300;2022-10-20T07:49:02;13.27;;;8.40;;
49946;SDS011;35839;48.662;13.300;2022-10-20T07:51:28;12.33;;;8.60;;
49946;SDS011;35839;48.662;13.300;2022-10-20T07:53:56;12.23;;;8.70;;
49946;SDS011;35839;48.662;13.300;2022-10-20T07:56:23;13.13;;;8.30;;
49946;SDS011;35839;48.662;13.300;2022-10-20T07:58:48;11.50;;;8.57;;
49946;SDS011;35839;48.662;13.300;2022-10-20T08:01:14;16.73;;;8.50;;
49946;SDS011;35839;48.662;13.300;2022-10-20T08:03:40;14.07;;;8.10;;
49946;SDS011;35839;48.662;13.300;2022-10-20T08:06:06;12.07;;;9.63;;
49946;SDS011;35839;48.662;13.300;2022-10-20T08:08:31;14.47;;;8.57;;
49946;SDS011;35839;48.662;13.300;2022-10-20T08:10:57;12.57;;;8.43;;
49946;SDS011;35839;48.662;13.300;2022-10-20T08:13:24;13.63;;;8.20;;
49946;SDS011;35839;48.662;13.300;2022-10-20T08:15:53;12.57;;;8.43;;
49946;SDS011;35839;48.662;13.300;2022-10-20T08:18:18;13.13;;;8.20;;
49946;SDS011;35839;48.662;13.300;2022-10-20T08:20:44;11.53;;;8.13;;
49946;SDS011;35839;48.662;13.300;2022-10-20T08:23:11;11.70;;;8.30;;
49946;SDS011;35839;48.662;13.300;2022-10-20T08:25:37;11.80;;;7.77;;
49946;SDS011;35839;48.662;13.300;2022-10-20T08:28:02;12.80;;;7.47;;
49946;SDS011;35839;48.662;13.300;2022-10-20T08:30:28;10.67;;;7.70;;
49946;SDS011;35839;48.662;13.300;2022-10-20T08:32:53;9.97;;;7.57;;
49946;SDS011;35839;48.662;13.300;2022-10-20T08:35:19;9.63;;;7.37;;
49946;SDS011;35839;48.662;13.300;2022-10-20T08:37:45;15.13;;;6.77;;
49946;SDS011;35839;48.662;13.300;2022-10-20T08:40:12;9.30;;;6.77;;
49946;SDS011;35839;48.662;13.300;2022-10-20T08:42:46;9.93;;;6.93;;
49946;SDS011;35839;48.662;13.300;2022-10-20T08:45:13;12.27;;;6.93;;
49946;SDS011;35839;48.662;13.300;2022-10-20T08:47:44;11.07;;;6.70;;
49946;SDS011;35839;48.662;13.300;2022-10-20T08:50:12;10.53;;;6.87;;
49946;SDS011;35839;48.662;13.300;2022-10-20T08:52:41;7.33;;;6.13;;
49946;SDS011;35839;48.662;13.300;2022-10-20T08:55:10;9.57;;;7.20;;
49946;SDS011;35839;48.662;13.300;2022-10-20T08:57:46;11.25;;;6.88;;
49946;SDS011;35839;48.662;13.300;2022-10-20T09:00:16;7.00;;;5.38;;
49946;SDS011;35839;48.662;13.300;2022-10-20T09:02:44;8.35;;;6.07;;
49946;SDS011;35839;48.662;13.300;2022-10-20T09:05:11;7.20;;;5.72;;
49946;SDS011;35839;48.662;13.300;2022-10-20T09:07:39;8.93;;;5.55;;
49946;SDS011;35839;48.662;13.300;2022-10-20T09:12:48;6.70;;;4.50;;
49946;SDS011;35839;48.662;13.300;2022-10-20T09:15:15;6.43;;;4.15;;
49946;SDS011;35839;48.662;13.300;2022-10-20T09:17:43;8.18;;;5.15;;
49946;SDS011;35839;48.662;13.300;2022-10-20T09:22:43;4.50;;;3.38;;
49946;SDS011;35839;48.662;13.300;2022-10-20T09:25:12;6.05;;;4.75;;
49946;SDS011;35839;48.662;13.300;2022-10-20T09:27:40;4.80;;;3.78;;
49946;SDS011;35839;48.662;13.300;2022-10-20T09:30:17;6.78;;;3.97;;
49946;SDS011;35839;48.662;13.300;2022-10-20T09:32:45;10.43;;;5.13;;
49946;SDS011;35839;48.662;13.300;2022-10-20T09:37:36;7.68;;;4.28;;
49946;SDS011;35839;48.662;13.300;2022-10-20T09:40:02;8.95;;;4.00;;
49946;SDS011;35839;48.662;13.300;2022-10-20T09:42:29;5.10;;;3.65;;
49946;SDS011;35839;48.662;13.300;2022-10-20T09:45:05;7.78;;;4.03;;
49946;SDS011;35839;48.662;13.300;2022-10-20T09:47:44;5.63;;;3.33;;
49946;SDS011;35839;48.662;13.300;2022-10-20T09:53:01;5.13;;;3.60;;
49946;SDS011;35839;48.662;13.300;2022-10-20T09:58:01;5.53;;;2.95;;
49946;SDS011;35839;48.662;13.300;2022-10-20T10:00:30;4.68;;;2.60;;
49946;SDS011;35839;48.662;13.300;2022-10-20T10:05:49;8.80;;;2.95;;
49946;SDS011;35839;48.662;13.300;2022-10-20T10:08:28;9.90;;;2.58;;
49946;SDS011;35839;48.662;13.300;2022-10-20T10:11:12;3.80;;;2.47;;
49946;SDS011;35839;48.662;13.300;2022-10-20T10:13:44;5.13;;;2.88;;
49946;SDS011;35839;48.662;13.300;2022-10-20T10:16:15;5.57;;;2.90;;
49946;SDS011;35839;48.662;13.300;2022-10-20T10:21:11;3.50;;;2.28;;
49946;SDS011;35839;48.662;13.300;2022-10-20T10:23:59;4.00;;;2.55;;
49946;SDS011;35839;48.662;13.300;2022-10-20T10:29:41;2.65;;;2.20;;
49946;SDS011;35839;48.662;13.300;2022-10-20T10:34:50;4.93;;;2.03;;
49946;SDS011;35839;48.662;13.300;2022-10-20T10:37:35;4.85;;;1.90;;
49946;SDS011;35839;48.662;13.300;2022-10-20T10:40:22;5.78;;;2.20;;
49946;SDS011;35839;48.662;13.300;2022-10-20T10:48:25;6.18;;;2.35;;
49946;SDS011;35839;48.662;13.300;2022-10-20T10:51:19;2.33;;;2.05;;
49946;SDS011;35839;48.662;13.300;2022-10-20T10:54:02;3.42;;;1.92;;
49946;SDS011;35839;48.662;13.300;2022-10-20T10:56:30;3.45;;;1.67;;
49946;SDS011;35839;48.662;13.300;2022-10-20T10:59:22;5.20;;;2.25;;
49946;SDS011;35839;48.662;13.300;2022-10-20T11:10:09;2.08;;;1.88;;
49946;SDS011;35839;48.662;13.300;2022-10-20T11:26:42;5.63;;;1.80;;
49946;SDS011;35839;48.662;13.300;2022-10-20T11:32:06;3.00;;;2.00;;
49946;SDS011;35839;48.662;13.300;2022-10-20T11:34:49;3.35;;;1.95;;
49946;SDS011;35839;48.662;13.300;2022-10-20T11:37:22;6.30;;;2.45;;
49946;SDS011;35839;48.662;13.300;2022-10-20T11:40:26;15.25;;;2.55;;
49946;SDS011;35839;48.662;13.300;2022-10-20T11:48:44;3.78;;;1.65;;
49946;SDS011;35839;48.662;13.300;2022-10-20T11:50:58;2.88;;;1.60;;
49946;SDS011;35839;48.662;13.300;2022-10-20T11:53:43;1.75;;;1.55;;
49946;SDS011;35839;48.662;13.300;2022-10-20T11:56:18;3.35;;;1.83;;
49946;SDS011;35839;48.662;13.300;2022-10-20T12:01:42;3.95;;;1.73;;
49946;SDS011;35839;48.662;13.300;2022-10-20T12:12:52;2.47;;;1.50;;
49946;SDS011;35839;48.662;13.300;2022-10-20T12:15:37;6.65;;;2.00;;
49946;SDS011;35839;48.662;13.300;2022-10-20T12:18:27;4.10;;;1.85;;
49946;SDS011;35839;48.662;13.300;2022-10-20T12:29:01;2.00;;;1.70;;
49946;SDS011;35839;48.662;13.300;2022-10-20T12:34:46;4.03;;;1.73;;
49946;SDS011;35839;48.662;13.300;2022-10-20T12:37:23;4.22;;;1.67;;
49946;SDS011;35839;48.662;13.300;2022-10-20T12:39:52;2.72;;;1.70;;
49946;SDS011;35839;48.662;13.300;2022-10-20T12:44:53;5.25;;;1.80;;
49946;SDS011;35839;48.662;13.300;2022-10-20T12:47:22;7.32;;;2.10;;
49946;SDS011;35839;48.662;13.300;2022-10-20T12:50:07;5.03;;;1.85;;
49946;SDS011;35839;48.662;13.300;2022-10-20T12:52:47;4.88;;;1.35;;
49946;SDS011;35839;48.662;13.300;2022-10-20T12:55:14;2.65;;;1.50;;
49946;SDS011;35839;48.662;13.300;2022-10-20T12:57:43;1.85;;;1.42;;
49946;SDS011;35839;48.662;13.300;2022-10-20T13:17:56;2.15;;;1.70;;
49946;SDS011;35839;48.662;13.300;2022-10-20T13:23:24;4.70;;;2.17;;
49946;SDS011;35839;48.662;13.300;2022-10-20T13:25:54;3.65;;;1.65;;
49946;SDS011;35839;48.662;13.300;2022-10-20T13:28:23;4.82;;;1.52;;
49946;SDS011;35839;48.662;13.300;2022-10-20T13:33:50;3.53;;;1.70;;
49946;SDS011;35839;48.662;13.300;2022-10-20T13:39:12;2.67;;;1.63;;
49946;SDS011;35839;48.662;13.300;2022-10-20T13:41:52;10.50;;;2.22;;
49946;SDS011;35839;48.662;13.300;2022-10-20T13:47:04;3.22;;;1.50;;
49946;SDS011;35839;48.662;13.300;2022-10-20T13:52:18;2.75;;;1.60;;
49946;SDS011;35839;48.662;13.300;2022-10-20T13:54:45;6.85;;;2.22;;
49946;SDS011;35839;48.662;13.300;2022-10-20T13:57:21;2.70;;;1.70;;
49946;SDS011;35839;48.662;13.300;2022-10-20T13:59:58;5.22;;;1.80;;
49946;SDS011;35839;48.662;13.300;2022-10-20T14:02:50;2.85;;;1.65;;
49946;SDS011;35839;48.662;13.300;2022-10-20T14:05:29;2.20;;;1.92;;
49946;SDS011;35839;48.662;13.300;2022-10-20T14:08:00;4.72;;;1.98;;
49946;SDS011;35839;48.662;13.300;2022-10-20T14:13:17;2.95;;;1.38;;
49946;SDS011;35839;48.662;13.300;2022-10-20T14:15:46;2.50;;;1.35;;
49946;SDS011;35839;48.662;13.300;2022-10-20T14:18:19;2.63;;;1.35;;
49946;SDS011;35839;48.662;13.300;2022-10-20T14:23:53;5.43;;;1.70;;
49946;SDS011;35839;48.662;13.300;2022-10-20T14:26:24;4.68;;;2.20;;
49946;SDS011;35839;48.662;13.300;2022-10-20T14:28:50;4.45;;;1.58;;
49946;SDS011;35839;48.662;13.300;2022-10-20T14:31:19;3.45;;;1.77;;
49946;SDS011;35839;48.662;13.300;2022-10-20T14:33:46;5.93;;;2.08;;
49946;SDS011;35839;48.662;13.300;2022-10-20T14:38:45;3.17;;;1.42;;
49946;SDS011;35839;48.662;13.300;2022-10-20T14:41:20;6.03;;;1.95;;
49946;SDS011;35839;48.662;13.300;2022-10-20T14:43:49;7.93;;;1.80;;
49946;SDS011;35839;48.662;13.300;2022-10-20T14:48:49;9.10;;;2.83;;
49946;SDS011;35839;48.662;13.300;2022-10-20T14:57:25;2.67;;;1.83;;
49946;SDS011;35839;48.662;13.300;2022-10-20T14:59:56;3.30;;;1.75;;
49946;SDS011;35839;48.662;13.300;2022-10-20T15:10:43;4.97;;;2.15;;
49946;SDS011;35839;48.662;13.300;2022-10-20T15:13:18;7.15;;;2.13;;
49946;SDS011;35839;48.662;13.300;2022-10-20T15:18:15;4.65;;;1.83;;
49946;SDS011;35839;48.662;13.300;2022-10-20T15:20:45;5.40;;;2.30;;
49946;SDS011;35839;48.662;13.300;2022-10-20T15:28:51;4.70;;;3.20;;
49946;SDS011;35839;48.662;13.300;2022-10-20T15:31:15;11.73;;;2.47;;
49946;SDS011;35839;48.662;13.300;2022-10-20T15:33:43;5.88;;;2.13;;
49946;SDS011;35839;48.662;13.300;2022-10-20T15:36:16;5.50;;;2.72;;
49946;SDS011;35839;48.662;13.300;2022-10-20T15:38:46;7.00;;;3.28;;
49946;SDS011;35839;48.662;13.300;2022-10-20T15:41:13;50.72;;;5.38;;
49946;SDS011;35839;48.662;13.300;2022-10-20T15:43:43;5.60;;;2.85;;
49946;SDS011;35839;48.662;13.300;2022-10-20T15:46:10;12.48;;;2.78;;
49946;SDS011;35839;48.662;13.300;2022-10-20T15:48:36;12.57;;;2.80;;
49946;SDS011;35839;48.662;13.300;2022-10-20T15:51:01;5.47;;;2.45;;
49946;SDS011;35839;48.662;13.300;2022-10-20T15:53:28;17.88;;;4.05;;
49946;SDS011;35839;48.662;13.300;2022-10-20T15:55:53;6.82;;;3.00;;
49946;SDS011;35839;48.662;13.300;2022-10-20T15:58:18;14.07;;;3.78;;
49946;SDS011;35839;48.662;13.300;2022-10-20T16:00:44;11.43;;;4.60;;
49946;SDS011;35839;48.662;13.300;2022-10-20T16:03:16;7.03;;;4.15;;
49946;SDS011;35839;48.662;13.300;2022-10-20T16:05:42;6.97;;;3.72;;
49946;SDS011;35839;48.662;13.300;2022-10-20T16:08:09;6.93;;;3.10;;
49946;SDS011;35839;48.662;13.300;2022-10-20T16:10:34;6.93;;;3.80;;
49946;SDS011;35839;48.662;13.300;2022-10-20T16:13:00;8.13;;;3.45;;
49946;SDS011;35839;48.662;13.300;2022-10-20T16:15:25;8.55;;;3.95;;
49946;SDS011;35839;48.662;13.300;2022-10-20T16:17:50;13.10;;;3.80;;
49946;SDS011;35839;48.662;13.300;2022-10-20T16:20:16;8.77;;;3.80;;
49946;SDS011;35839;48.662;13.300;2022-10-20T16:22:41;11.75;;;4.78;;
49946;SDS011;35839;48.662;13.300;2022-10-20T16:25:07;13.32;;;4.10;;
49946;SDS011;35839;48.662;13.300;2022-10-20T16:27:32;10.50;;;4.55;;
49946;SDS011;35839;48.662;13.300;2022-10-20T16:29:58;4.78;;;3.60;;
49946;SDS011;35839;48.662;13.300;2022-10-20T16:32:24;14.35;;;4.43;;
49946;SDS011;35839;48.662;13.300;2022-10-20T16:34:50;10.88;;;4.22;;
49946;SDS011;35839;48.662;13.300;2022-10-20T16:37:16;7.05;;;3.70;;
49946;SDS011;35839;48.662;13.300;2022-10-20T16:39:41;10.20;;;4.00;;
49946;SDS011;35839;48.662;13.300;2022-10-20T16:42:07;7.72;;;3.80;;
49946;SDS011;35839;48.662;13.300;2022-10-20T16:44:32;9.60;;;4.43;;
49946;SDS011;35839;48.662;13.300;2022-10-20T16:46:57;5.50;;;4.00;;
49946;SDS011;35839;48.662;13.300;2022-10-20T16:49:23;6.38;;;4.50;;
49946;SDS011;35839;48.662;13.300;2022-10-20T16:51:49;6.70;;;4.13;;
49946;SDS011;35839;48.662;13.300;2022-10-20T16:54:15;10.38;;;4.40;;
49946;SDS011;35839;48.662;13.300;2022-10-20T16:56:40;13.45;;;4.85;;
49946;SDS011;35839;48.662;13.300;2022-10-20T16:59:06;8.80;;;4.88;;
49946;SDS011;35839;48.662;13.300;2022-10-20T17:01:31;7.47;;;4.72;;
49946;SDS011;35839;48.662;13.300;2022-10-20T17:03:57;7.85;;;4.75;;
49946;SDS011;35839;48.662;13.300;2022-10-20T17:06:23;11.07;;;5.90;;
49946;SDS011;35839;48.662;13.300;2022-10-20T17:08:50;11.00;;;5.47;;
49946;SDS011;35839;48.662;13.300;2022-10-20T17:11:17;9.07;;;5.32;;
49946;SDS011;35839;48.662;13.300;2022-10-20T17:13:45;9.63;;;5.77;;
49946;SDS011;35839;48.662;13.300;2022-10-20T17:16:17;11.18;;;6.43;;
49946;SDS011;35839;48.662;13.300;2022-10-20T17:18:47;11.40;;;6.43;;
49946;SDS011;35839;48.662;13.300;2022-10-20T17:21:13;10.88;;;6.47;;
49946;SDS011;35839;48.662;13.300;2022-10-20T17:23:40;12.50;;;6.38;;
49946;SDS011;35839;48.662;13.300;2022-10-20T17:26:07;13.10;;;6.95;;
49946;SDS011;35839;48.662;13.300;2022-10-20T17:28:35;10.90;;;6.03;;
49946;SDS011;35839;48.662;13.300;2022-10-20T17:31:03;11.00;;;5.82;;
49946;SDS011;35839;48.662;13.300;2022-10-20T17:33:30;6.45;;;5.22;;
49946;SDS011;35839;48.662;13.300;2022-10-20T17:35:56;9.15;;;5.53;;
49946;SDS011;35839;48.662;13.300;2022-10-20T17:38:22;10.63;;;6.15;;
49946;SDS011;35839;48.662;13.300;2022-10-20T17:40:49;11.43;;;6.05;;
49946;SDS011;35839;48.662;13.300;2022-10-20T17:43:14;9.40;;;5.82;;
49946;SDS011;35839;48.662;13.300;2022-10-20T17:45:40;7.63;;;6.20;;
49946;SDS011;35839;48.662;13.300;2022-10-20T17:48:05;10.43;;;5.93;;
49946;SDS011;35839;48.662;13.300;2022-10-20T17:50:31;16.25;;;7.13;;
49946;SDS011;35839;48.662;13.300;2022-10-20T17:52:59;9.95;;;6.70;;
49946;SDS011;35839;48.662;13.300;2022-10-20T17:55:25;17.92;;;7.55;;
49946;SDS011;35839;48.662;13.300;2022-10-20T17:57:50;11.48;;;7.10;;
49946;SDS011;35839;48.662;13.300;2022-10-20T18:00:16;11.50;;;6.38;;
49946;SDS011;35839;48.662;13.300;2022-10-20T18:02:47;11.10;;;6.15;;
49946;SDS011;35839;48.662;13.300;2022-10-20T18:05:14;17.05;;;6.60;;
49946;SDS011;35839;48.662;13.300;2022-10-20T18:07:39;16.13;;;7.63;;
49946;SDS011;35839;48.662;13.300;2022-10-20T18:10:05;12.25;;;6.82;;
49946;SDS011;35839;48.662;13.300;2022-10-20T18:12:30;10.00;;;7.40;;
49946;SDS011;35839;48.662;13.300;2022-10-20T18:14:56;15.88;;;7.45;;
49946;SDS011;35839;48.662;13.300;2022-10-20T18:17:21;12.02;;;8.13;;
49946;SDS011;35839;48.662;13.300;2022-10-20T18:19:46;15.15;;;7.55;;
49946;SDS011;35839;48.662;13.300;2022-10-20T18:22:12;13.82;;;9.25;;
49946;SDS011;35839;48.662;13.300;2022-10-20T18:24:37;15.85;;;7.40;;
49946;SDS011;35839;48.662;13.300;2022-10-20T18:27:03;12.70;;;8.15;;
49946;SDS011;35839;48.662;13.300;2022-10-20T18:29:29;14.23;;;7.70;;
49946;SDS011;35839;48.662;13.300;2022-10-20T18:31:55;10.07;;;7.55;;
49946;SDS011;35839;48.662;13.300;2022-10-20T18:34:20;13.45;;;8.73;;
49946;SDS011;35839;48.662;13.300;2022-10-20T18:36:46;13.53;;;9.50;;
49946;SDS011;35839;48.662;13.300;2022-10-20T18:39:12;9.83;;;7.57;;
49946;SDS011;35839;48.662;13.300;2022-10-20T18:41:39;12.73;;;8.47;;
49946;SDS011;35839;48.662;13.300;2022-10-20T18:44:09;13.27;;;7.83;;
49946;SDS011;35839;48.662;13.300;2022-10-20T18:46:37;15.83;;;8.13;;
49946;SDS011;35839;48.662;13.300;2022-10-20T18:49:03;11.27;;;7.87;;
49946;SDS011;35839;48.662;13.300;2022-10-20T18:51:31;13.43;;;7.70;;
49946;SDS011;35839;48.662;13.300;2022-10-20T18:53:57;11.83;;;8.27;;
49946;SDS011;35839;48.662;13.300;2022-10-20T18:56:24;11.87;;;8.43;;
49946;SDS011;35839;48.662;13.300;2022-10-20T18:58:52;14.47;;;8.77;;
49946;SDS011;35839;48.662;13.300;2022-10-20T19:01:21;10.50;;;8.40;;
49946;SDS011;35839;48.662;13.300;2022-10-20T19:03:48;16.00;;;7.82;;
49946;SDS011;35839;48.662;13.300;2022-10-20T19:06:17;11.48;;;7.88;;
49946;SDS011;35839;48.662;13.300;2022-10-20T19:08:48;12.23;;;7.50;;
49946;SDS011;35839;48.662;13.300;2022-10-20T19:11:18;11.55;;;8.10;;
49946;SDS011;35839;48.662;13.300;2022-10-20T19:13:44;15.03;;;7.73;;
49946;SDS011;35839;48.662;13.300;2022-10-20T19:16:11;24.93;;;9.13;;
49946;SDS011;35839;48.662;13.300;2022-10-20T19:21:05;11.20;;;8.57;;
49946;SDS011;35839;48.662;13.300;2022-10-20T19:23:32;15.13;;;8.77;;
49946;SDS011;35839;48.662;13.300;2022-10-20T19:26:11;13.73;;;9.13;;
49946;SDS011;35839;48.662;13.300;2022-10-20T19:28:40;14.68;;;12.07;;
49946;SDS011;35839;48.662;13.300;2022-10-20T19:31:13;19.45;;;10.27;;
49946;SDS011;35839;48.662;13.300;2022-10-20T19:33:44;11.60;;;8.13;;
49946;SDS011;35839;48.662;13.300;2022-10-20T19:36:10;18.97;;;9.13;;
49946;SDS011;35839;48.662;13.300;2022-10-20T19:38:36;14.47;;;9.60;;
49946;SDS011;35839;48.662;13.300;2022-10-20T19:41:01;14.27;;;8.33;;
49946;SDS011;35839;48.662;13.300;2022-10-20T19:43:27;13.70;;;8.33;;
49946;SDS011;35839;48.662;13.300;2022-10-20T19:45:52;16.20;;;8.43;;
49946;SDS011;35839;48.662;13.300;2022-10-20T19:48:18;14.27;;;9.00;;
49946;SDS011;35839;48.662;13.300;2022-10-20T19:50:44;14.17;;;8.27;;
49946;SDS011;35839;48.662;13.300;2022-10-20T19:53:09;14.67;;;7.97;;
49946;SDS011;35839;48.662;13.300;2022-10-20T19:55:34;11.47;;;8.63;;
49946;SDS011;35839;48.662;13.300;2022-10-20T19:58:00;15.00;;;9.37;;
49946;SDS011;35839;48.662;13.300;2022-10-20T20:00:26;15.77;;;9.17;;
49946;SDS011;35839;48.662;13.300;2022-10-20T20:02:51;18.73;;;11.30;;
49946;SDS011;35839;48.662;13.300;2022-10-20T20:05:17;21.47;;;10.87;;
49946;SDS011;35839;48.662;13.300;2022-10-20T20:07:42;11.93;;;8.67;;
49946;SDS011;35839;48.662;13.300;2022-10-20T20:10:07;18.80;;;8.77;;
49946;SDS011;35839;48.662;13.300;2022-10-20T20:12:34;11.67;;;7.43;;
49946;SDS011;35839;48.662;13.300;2022-10-20T20:14:59;17.27;;;8.73;;
49946;SDS011;35839;48.662;13.300;2022-10-20T20:17:25;10.63;;;8.47;;
49946;SDS011;35839;48.662;13.300;2022-10-20T20:19:50;13.63;;;8.33;;
49946;SDS011;35839;48.662;13.300;2022-10-20T20:22:16;15.50;;;8.90;;
49946;SDS011;35839;48.662;13.300;2022-10-20T20:24:41;13.53;;;9.60;;
49946;SDS011;35839;48.662;13.300;2022-10-20T20:27:06;17.60;;;9.70;;
49946;SDS011;35839;48.662;13.300;2022-10-20T20:29:32;11.53;;;9.40;;
49946;SDS011;35839;48.662;13.300;2022-10-20T20:31:58;15.77;;;10.07;;
49946;SDS011;35839;48.662;13.300;2022-10-20T20:34:24;13.00;;;9.17;;
49946;SDS011;35839;48.662;13.300;2022-10-20T20:36:49;13.87;;;9.90;;
49946;SDS011;35839;48.662;13.300;2022-10-20T20:39:14;16.13;;;10.27;;
49946;SDS011;35839;48.662;13.300;2022-10-20T20:41:40;22.67;;;10.97;;
49946;SDS011;35839;48.662;13.300;2022-10-20T20:44:05;15.13;;;10.67;;
49946;SDS011;35839;48.662;13.300;2022-10-20T20:46:31;16.00;;;8.87;;
49946;SDS011;35839;48.662;13.300;2022-10-20T20:48:59;15.53;;;9.23;;
49946;SDS011;35839;48.662;13.300;2022-10-20T20:51:24;14.10;;;9.93;;
49946;SDS011;35839;48.662;13.300;2022-10-20T20:53:52;17.70;;;11.13;;
49946;SDS011;35839;48.662;13.300;2022-10-20T20:56:18;14.97;;;10.83;;
49946;SDS011;35839;48.662;13.300;2022-10-20T20:58:44;13.57;;;9.47;;
49946;SDS011;35839;48.662;13.300;2022-10-20T21:01:12;16.13;;;10.47;;
49946;SDS011;35839;48.662;13.300;2022-10-20T21:03:41;15.47;;;9.60;;
49946;SDS011;35839;48.662;13.300;2022-10-20T21:06:08;13.80;;;8.93;;
49946;SDS011;35839;48.662;13.300;2022-10-20T21:08:35;15.13;;;9.13;;
49946;SDS011;35839;48.662;13.300;2022-10-20T21:11:03;13.30;;;10.13;;
49946;SDS011;35839;48.662;13.300;2022-10-20T21:13:32;14.17;;;9.40;;
49946;SDS011;35839;48.662;13.300;2022-10-20T21:16:12;13.53;;;8.60;;
49946;SDS011;35839;48.662;13.300;2022-10-20T21:18:45;13.70;;;9.50;;
49946;SDS011;35839;48.662;13.300;2022-10-20T21:21:16;19.13;;;10.33;;
49946;SDS011;35839;48.662;13.300;2022-10-20T21:23:44;15.23;;;9.07;;
49946;SDS011;35839;48.662;13.300;2022-10-20T21:26:10;14.03;;;9.37;;
49946;SDS011;35839;48.662;13.300;2022-10-20T21:28:37;18.23;;;10.83;;
49946;SDS011;35839;48.662;13.300;2022-10-20T21:31:04;14.17;;;10.20;;
49946;SDS011;35839;48.662;13.300;2022-10-20T21:33:32;14.70;;;10.33;;
49946;SDS011;35839;48.662;13.300;2022-10-20T21:36:01;17.90;;;8.97;;
49946;SDS011;35839;48.662;13.300;2022-10-20T21:38:28;16.67;;;9.50;;
49946;SDS011;35839;48.662;13.300;2022-10-20T21:40:59;14.17;;;9.17;;
49946;SDS011;35839;48.662;13.300;2022-10-20T21:43:29;13.83;;;10.63;;
49946;SDS011;35839;48.662;13.300;2022-10-20T21:45:55;15.23;;;9.57;;
49946;SDS011;35839;48.662;13.300;2022-10-20T21:48:21;21.63;;;9.93;;
49946;SDS011;35839;48.662;13.300;2022-10-20T21:50:46;15.73;;;10.13;;
49946;SDS011;35839;48.662;13.300;2022-10-20T21:53:11;14.63;;;9.73;;
49946;SDS011;35839;48.662;13.300;2022-10-20T21:55:37;15.37;;;9.00;;
49946;SDS011;35839;48.662;13.300;2022-10-20T21:58:02;13.97;;;8.63;;
49946;SDS011;35839;48.662;13.300;2022-10-20T22:00:27;17.23;;;9.00;;
49946;SDS011;35839;48.662;13.300;2022-10-20T22:02:52;22.57;;;10.33;;